sensor_id;sensor_type;location;lat;lon;timestamp;P1;durP1;ratioP1;P2;durP2;ratioP2
11396;SDS011;5754;43.726;7.416;2023-09-30T00:01:47;8.52;;;7.62;;
11396;SDS011;5754;43.726;7.416;2023-09-30T00:04:23;9.43;;;7.35;;
11396;SDS011;5754;43.726;7.416;2023-09-30T00:06:59;11.02;;;7.50;;
11396;SDS011;5754;43.726;7.416;2023-09-30T00:09:35;10.15;;;6.87;;
11396;SDS011;5754;43.726;7.416;2023-09-30T00:12:09;8.65;;;7.25;;
11396;SDS011;5754;43.726;7.416;2023-09-30T00:14:45;9.02;;;7.45;;
11396;SDS011;5754;43.726;7.416;2023-09-30T00:17:21;12.15;;;7.18;;
11396;SDS011;5754;43.726;7.416;2023-09-30T00:19:56;9.02;;;6.85;;
11396;SDS011;5754;43.726;7.416;2023-09-30T00:22:32;8.15;;;7.25;;
11396;SDS011;5754;43.726;7.416;2023-09-30T00:25:07;9.63;;;7.40;;
11396;SDS011;5754;43.726;7.416;2023-09-30T00:27:42;10.13;;;7.50;;
11396;SDS011;5754;43.726;7.416;2023-09-30T00:30:17;8.68;;;7.45;;
11396;SDS011;5754;43.726;7.416;2023-09-30T00:32:51;15.27;;;7.20;;
11396;SDS011;5754;43.726;7.416;2023-09-30T00:35:26;7.93;;;7.20;;
11396;SDS011;5754;43.726;7.416;2023-09-30T00:38:01;8.25;;;7.20;;
11396;SDS011;5754;43.726;7.416;2023-09-30T00:40:36;7.70;;;6.90;;
11396;SDS011;5754;43.726;7.416;2023-09-30T00:43:17;8.75;;;6.60;;
11396;SDS011;5754;43.726;7.416;2023-09-30T00:45:55;8.43;;;6.80;;
11396;SDS011;5754;43.726;7.416;2023-09-30T00:48:32;7.35;;;6.70;;
11396;SDS011;5754;43.726;7.416;2023-09-30T00:51:07;8.20;;;6.80;;
11396;SDS011;5754;43.726;7.416;2023-09-30T00:53:42;9.98;;;7.25;;
11396;SDS011;5754;43.726;7.416;2023-09-30T00:59:00;10.50;;;6.75;;
11396;SDS011;5754;43.726;7.416;2023-09-30T01:01:35;11.10;;;7.00;;
11396;SDS011;5754;43.726;7.416;2023-09-30T01:04:11;7.95;;;7.15;;
11396;SDS011;5754;43.726;7.416;2023-09-30T01:06:46;8.15;;;6.87;;
11396;SDS011;5754;43.726;7.416;2023-09-30T01:09:21;8.60;;;7.00;;
11396;SDS011;5754;43.726;7.416;2023-09-30T01:11:57;7.78;;;6.87;;
11396;SDS011;5754;43.726;7.416;2023-09-30T01:14:32;7.18;;;6.43;;
11396;SDS011;5754;43.726;7.416;2023-09-30T01:17:14;7.87;;;6.60;;
11396;SDS011;5754;43.726;7.416;2023-09-30T01:19:49;8.20;;;7.37;;
11396;SDS011;5754;43.726;7.416;2023-09-30T01:22:26;8.48;;;6.85;;
11396;SDS011;5754;43.726;7.416;2023-09-30T01:25:03;8.05;;;7.25;;
11396;SDS011;5754;43.726;7.416;2023-09-30T01:27:39;8.37;;;7.27;;
11396;SDS011;5754;43.726;7.416;2023-09-30T01:30:15;10.85;;;7.10;;
11396;SDS011;5754;43.726;7.416;2023-09-30T01:32:49;8.07;;;7.30;;
11396;SDS011;5754;43.726;7.416;2023-09-30T01:35:24;7.82;;;7.05;;
11396;SDS011;5754;43.726;7.416;2023-09-30T01:38:01;9.18;;;7.43;;
11396;SDS011;5754;43.726;7.416;2023-09-30T01:40:35;8.73;;;7.40;;
11396;SDS011;5754;43.726;7.416;2023-09-30T01:43:11;8.90;;;7.05;;
11396;SDS011;5754;43.726;7.416;2023-09-30T01:45:47;9.18;;;6.80;;
11396;SDS011;5754;43.726;7.416;2023-09-30T01:48:22;9.13;;;7.55;;
11396;SDS011;5754;43.726;7.416;2023-09-30T01:50:58;8.88;;;6.70;;
11396;SDS011;5754;43.726;7.416;2023-09-30T01:53:33;7.28;;;6.32;;
11396;SDS011;5754;43.726;7.416;2023-09-30T01:56:08;8.25;;;7.03;;
11396;SDS011;5754;43.726;7.416;2023-09-30T01:58:43;11.15;;;7.20;;
11396;SDS011;5754;43.726;7.416;2023-09-30T02:01:18;8.82;;;6.97;;
11396;SDS011;5754;43.726;7.416;2023-09-30T02:03:53;8.00;;;6.43;;
11396;SDS011;5754;43.726;7.416;2023-09-30T02:06:27;9.43;;;6.82;;
11396;SDS011;5754;43.726;7.416;2023-09-30T02:09:02;9.20;;;6.75;;
11396;SDS011;5754;43.726;7.416;2023-09-30T02:11:38;7.60;;;6.77;;
11396;SDS011;5754;43.726;7.416;2023-09-30T02:14:15;8.13;;;6.75;;
11396;SDS011;5754;43.726;7.416;2023-09-30T02:16:50;9.82;;;7.45;;
11396;SDS011;5754;43.726;7.416;2023-09-30T02:19:24;8.40;;;7.20;;
11396;SDS011;5754;43.726;7.416;2023-09-30T02:22:04;9.07;;;6.62;;
11396;SDS011;5754;43.726;7.416;2023-09-30T02:24:39;9.18;;;7.25;;
11396;SDS011;5754;43.726;7.416;2023-09-30T02:27:14;8.80;;;6.95;;
11396;SDS011;5754;43.726;7.416;2023-09-30T02:29:49;11.07;;;7.20;;
11396;SDS011;5754;43.726;7.416;2023-09-30T02:32:24;7.57;;;6.90;;
11396;SDS011;5754;43.726;7.416;2023-09-30T02:35:00;9.20;;;6.75;;
11396;SDS011;5754;43.726;7.416;2023-09-30T02:37:35;8.55;;;7.62;;
11396;SDS011;5754;43.726;7.416;2023-09-30T02:40:10;9.48;;;7.07;;
11396;SDS011;5754;43.726;7.416;2023-09-30T02:42:45;7.22;;;6.47;;
11396;SDS011;5754;43.726;7.416;2023-09-30T02:45:22;8.30;;;7.50;;
11396;SDS011;5754;43.726;7.416;2023-09-30T02:47:57;8.02;;;7.05;;
11396;SDS011;5754;43.726;7.416;2023-09-30T02:50:34;8.65;;;7.50;;
11396;SDS011;5754;43.726;7.416;2023-09-30T02:53:09;8.75;;;7.95;;
11396;SDS011;5754;43.726;7.416;2023-09-30T02:55:44;8.80;;;7.85;;
11396;SDS011;5754;43.726;7.416;2023-09-30T02:58:19;8.50;;;7.63;;
11396;SDS011;5754;43.726;7.416;2023-09-30T03:00:54;9.20;;;8.18;;
11396;SDS011;5754;43.726;7.416;2023-09-30T03:03:28;9.23;;;7.97;;
11396;SDS011;5754;43.726;7.416;2023-09-30T03:06:05;9.50;;;8.10;;
11396;SDS011;5754;43.726;7.416;2023-09-30T03:08:39;9.15;;;8.13;;
11396;SDS011;5754;43.726;7.416;2023-09-30T03:11:15;9.80;;;8.50;;
11396;SDS011;5754;43.726;7.416;2023-09-30T03:13:50;9.45;;;8.45;;
11396;SDS011;5754;43.726;7.416;2023-09-30T03:16:25;9.00;;;7.72;;
11396;SDS011;5754;43.726;7.416;2023-09-30T03:18:59;10.40;;;8.43;;
11396;SDS011;5754;43.726;7.416;2023-09-30T03:21:34;8.82;;;8.05;;
11396;SDS011;5754;43.726;7.416;2023-09-30T03:24:09;8.57;;;7.87;;
11396;SDS011;5754;43.726;7.416;2023-09-30T03:26:46;11.12;;;8.80;;
11396;SDS011;5754;43.726;7.416;2023-09-30T03:29:20;11.40;;;8.43;;
11396;SDS011;5754;43.726;7.416;2023-09-30T03:31:55;9.75;;;8.27;;
11396;SDS011;5754;43.726;7.416;2023-09-30T03:34:30;12.77;;;8.43;;
11396;SDS011;5754;43.726;7.416;2023-09-30T03:37:05;8.23;;;7.57;;
11396;SDS011;5754;43.726;7.416;2023-09-30T03:39:43;9.55;;;8.65;;
11396;SDS011;5754;43.726;7.416;2023-09-30T03:42:18;9.13;;;8.30;;
11396;SDS011;5754;43.726;7.416;2023-09-30T03:44:53;10.38;;;8.98;;
11396;SDS011;5754;43.726;7.416;2023-09-30T03:47:27;9.25;;;8.30;;
11396;SDS011;5754;43.726;7.416;2023-09-30T03:50:03;9.23;;;8.37;;
11396;SDS011;5754;43.726;7.416;2023-09-30T03:52:42;9.50;;;8.60;;
11396;SDS011;5754;43.726;7.416;2023-09-30T03:55:18;9.05;;;8.13;;
11396;SDS011;5754;43.726;7.416;2023-09-30T03:57:54;10.20;;;8.57;;
11396;SDS011;5754;43.726;7.416;2023-09-30T04:00:30;9.68;;;8.63;;
11396;SDS011;5754;43.726;7.416;2023-09-30T04:03:05;9.85;;;8.82;;
11396;SDS011;5754;43.726;7.416;2023-09-30T04:05:40;9.35;;;8.65;;
11396;SDS011;5754;43.726;7.416;2023-09-30T04:08:15;9.27;;;8.45;;
11396;SDS011;5754;43.726;7.416;2023-09-30T04:10:50;9.52;;;8.63;;
11396;SDS011;5754;43.726;7.416;2023-09-30T04:13:25;9.67;;;8.67;;
11396;SDS011;5754;43.726;7.416;2023-09-30T04:16:00;11.05;;;9.05;;
11396;SDS011;5754;43.726;7.416;2023-09-30T04:18:37;9.85;;;8.40;;
11396;SDS011;5754;43.726;7.416;2023-09-30T04:21:14;9.07;;;8.13;;
11396;SDS011;5754;43.726;7.416;2023-09-30T04:23:49;8.95;;;8.07;;
11396;SDS011;5754;43.726;7.416;2023-09-30T04:26:24;8.40;;;7.70;;
11396;SDS011;5754;43.726;7.416;2023-09-30T04:28:59;8.50;;;7.80;;
11396;SDS011;5754;43.726;7.416;2023-09-30T04:31:35;10.75;;;8.30;;
11396;SDS011;5754;43.726;7.416;2023-09-30T04:34:09;9.23;;;8.48;;
11396;SDS011;5754;43.726;7.416;2023-09-30T04:36:44;10.38;;;9.38;;
11396;SDS011;5754;43.726;7.416;2023-09-30T04:39:18;9.23;;;8.33;;
11396;SDS011;5754;43.726;7.416;2023-09-30T04:41:53;10.20;;;8.57;;
11396;SDS011;5754;43.726;7.416;2023-09-30T04:44:28;9.30;;;7.87;;
11396;SDS011;5754;43.726;7.416;2023-09-30T04:47:03;9.27;;;8.47;;
11396;SDS011;5754;43.726;7.416;2023-09-30T04:49:38;9.70;;;8.52;;
11396;SDS011;5754;43.726;7.416;2023-09-30T04:52:13;8.98;;;8.20;;
11396;SDS011;5754;43.726;7.416;2023-09-30T04:54:49;8.73;;;7.85;;
11396;SDS011;5754;43.726;7.416;2023-09-30T04:57:23;8.90;;;8.10;;
11396;SDS011;5754;43.726;7.416;2023-09-30T04:59:59;9.18;;;8.35;;
11396;SDS011;5754;43.726;7.416;2023-09-30T05:02:34;8.95;;;8.10;;
11396;SDS011;5754;43.726;7.416;2023-09-30T05:05:10;8.15;;;7.50;;
11396;SDS011;5754;43.726;7.416;2023-09-30T05:07:44;9.00;;;8.02;;
11396;SDS011;5754;43.726;7.416;2023-09-30T05:10:21;11.40;;;8.70;;
11396;SDS011;5754;43.726;7.416;2023-09-30T05:12:56;8.80;;;8.00;;
11396;SDS011;5754;43.726;7.416;2023-09-30T05:15:31;8.73;;;7.93;;
11396;SDS011;5754;43.726;7.416;2023-09-30T05:18:09;10.50;;;7.43;;
11396;SDS011;5754;43.726;7.416;2023-09-30T05:20:45;24.37;;;8.82;;
11396;SDS011;5754;43.726;7.416;2023-09-30T05:23:19;31.13;;;9.17;;
11396;SDS011;5754;43.726;7.416;2023-09-30T05:26:08;44.53;;;9.88;;
11396;SDS011;5754;43.726;7.416;2023-09-30T05:28:42;40.17;;;10.30;;
11396;SDS011;5754;43.726;7.416;2023-09-30T05:31:35;46.95;;;10.57;;
11396;SDS011;5754;43.726;7.416;2023-09-30T05:34:11;37.33;;;9.52;;
11396;SDS011;5754;43.726;7.416;2023-09-30T05:36:46;15.50;;;7.85;;
11396;SDS011;5754;43.726;7.416;2023-09-30T05:39:20;19.83;;;8.27;;
11396;SDS011;5754;43.726;7.416;2023-09-30T05:41:56;11.95;;;8.50;;
11396;SDS011;5754;43.726;7.416;2023-09-30T05:44:30;13.33;;;8.20;;
11396;SDS011;5754;43.726;7.416;2023-09-30T05:47:06;11.45;;;8.25;;
11396;SDS011;5754;43.726;7.416;2023-09-30T05:49:40;10.00;;;7.75;;
11396;SDS011;5754;43.726;7.416;2023-09-30T05:52:15;13.10;;;8.93;;
11396;SDS011;5754;43.726;7.416;2023-09-30T05:54:50;9.68;;;8.68;;
11396;SDS011;5754;43.726;7.416;2023-09-30T05:57:24;9.63;;;8.63;;
11396;SDS011;5754;43.726;7.416;2023-09-30T06:00:01;9.43;;;8.53;;
11396;SDS011;5754;43.726;7.416;2023-09-30T06:02:45;10.20;;;8.50;;
11396;SDS011;5754;43.726;7.416;2023-09-30T06:05:20;9.48;;;8.48;;
11396;SDS011;5754;43.726;7.416;2023-09-30T06:08:04;9.70;;;8.70;;
11396;SDS011;5754;43.726;7.416;2023-09-30T06:10:42;9.43;;;8.20;;
11396;SDS011;5754;43.726;7.416;2023-09-30T06:13:17;9.90;;;8.60;;
11396;SDS011;5754;43.726;7.416;2023-09-30T06:15:52;11.18;;;8.40;;
11396;SDS011;5754;43.726;7.416;2023-09-30T06:18:26;11.40;;;9.65;;
11396;SDS011;5754;43.726;7.416;2023-09-30T06:21:02;12.43;;;8.30;;
11396;SDS011;5754;43.726;7.416;2023-09-30T06:23:37;9.20;;;8.30;;
11396;SDS011;5754;43.726;7.416;2023-09-30T06:26:13;9.43;;;7.72;;
11396;SDS011;5754;43.726;7.416;2023-09-30T06:28:48;9.13;;;7.80;;
11396;SDS011;5754;43.726;7.416;2023-09-30T06:31:23;8.48;;;7.68;;
11396;SDS011;5754;43.726;7.416;2023-09-30T06:33:58;8.40;;;7.70;;
11396;SDS011;5754;43.726;7.416;2023-09-30T06:36:34;8.32;;;7.47;;
11396;SDS011;5754;43.726;7.416;2023-09-30T06:39:11;11.38;;;8.25;;
11396;SDS011;5754;43.726;7.416;2023-09-30T06:41:45;8.95;;;7.55;;
11396;SDS011;5754;43.726;7.416;2023-09-30T06:44:20;8.32;;;7.40;;
11396;SDS011;5754;43.726;7.416;2023-09-30T06:46:58;8.18;;;7.37;;
11396;SDS011;5754;43.726;7.416;2023-09-30T06:49:34;11.12;;;7.37;;
11396;SDS011;5754;43.726;7.416;2023-09-30T06:52:09;10.40;;;7.55;;
11396;SDS011;5754;43.726;7.416;2023-09-30T06:54:43;8.88;;;7.80;;
11396;SDS011;5754;43.726;7.416;2023-09-30T06:57:18;10.38;;;7.70;;
11396;SDS011;5754;43.726;7.416;2023-09-30T06:59:52;8.38;;;7.37;;
11396;SDS011;5754;43.726;7.416;2023-09-30T07:02:28;9.60;;;7.70;;
11396;SDS011;5754;43.726;7.416;2023-09-30T07:05:09;10.43;;;8.10;;
11396;SDS011;5754;43.726;7.416;2023-09-30T07:07:44;9.40;;;8.00;;
11396;SDS011;5754;43.726;7.416;2023-09-30T07:10:20;12.02;;;7.55;;
11396;SDS011;5754;43.726;7.416;2023-09-30T07:12:55;8.35;;;7.50;;
11396;SDS011;5754;43.726;7.416;2023-09-30T07:15:31;11.18;;;7.72;;
11396;SDS011;5754;43.726;7.416;2023-09-30T07:18:07;9.32;;;7.62;;
11396;SDS011;5754;43.726;7.416;2023-09-30T07:20:42;7.87;;;7.10;;
11396;SDS011;5754;43.726;7.416;2023-09-30T07:23:18;8.43;;;7.57;;
11396;SDS011;5754;43.726;7.416;2023-09-30T07:26:07;14.05;;;7.53;;
11396;SDS011;5754;43.726;7.416;2023-09-30T07:28:41;8.35;;;7.18;;
11396;SDS011;5754;43.726;7.416;2023-09-30T07:31:16;7.90;;;6.90;;
11396;SDS011;5754;43.726;7.416;2023-09-30T07:33:50;9.30;;;7.55;;
11396;SDS011;5754;43.726;7.416;2023-09-30T07:36:26;10.65;;;7.22;;
11396;SDS011;5754;43.726;7.416;2023-09-30T07:39:00;11.57;;;6.75;;
11396;SDS011;5754;43.726;7.416;2023-09-30T07:41:36;12.32;;;7.87;;
11396;SDS011;5754;43.726;7.416;2023-09-30T07:44:11;8.38;;;7.07;;
11396;SDS011;5754;43.726;7.416;2023-09-30T07:46:45;11.35;;;6.70;;
11396;SDS011;5754;43.726;7.416;2023-09-30T07:49:20;8.23;;;7.45;;
11396;SDS011;5754;43.726;7.416;2023-09-30T07:52:11;9.65;;;7.72;;
11396;SDS011;5754;43.726;7.416;2023-09-30T07:54:45;10.35;;;7.60;;
11396;SDS011;5754;43.726;7.416;2023-09-30T07:57:21;9.40;;;7.70;;
11396;SDS011;5754;43.726;7.416;2023-09-30T07:59:55;10.20;;;7.60;;
11396;SDS011;5754;43.726;7.416;2023-09-30T08:02:30;15.00;;;8.07;;
11396;SDS011;5754;43.726;7.416;2023-09-30T08:05:07;9.40;;;7.47;;
11396;SDS011;5754;43.726;7.416;2023-09-30T08:07:42;9.27;;;7.25;;
11396;SDS011;5754;43.726;7.416;2023-09-30T08:10:18;9.82;;;7.53;;
11396;SDS011;5754;43.726;7.416;2023-09-30T08:12:53;10.13;;;7.22;;
11396;SDS011;5754;43.726;7.416;2023-09-30T08:15:31;7.80;;;7.10;;
11396;SDS011;5754;43.726;7.416;2023-09-30T08:18:06;8.85;;;7.15;;
11396;SDS011;5754;43.726;7.416;2023-09-30T08:20:42;7.40;;;6.80;;
11396;SDS011;5754;43.726;7.416;2023-09-30T08:23:17;7.95;;;6.95;;
11396;SDS011;5754;43.726;7.416;2023-09-30T08:25:52;9.95;;;7.50;;
11396;SDS011;5754;43.726;7.416;2023-09-30T08:28:28;12.05;;;7.10;;
11396;SDS011;5754;43.726;7.416;2023-09-30T08:31:03;10.80;;;7.72;;
11396;SDS011;5754;43.726;7.416;2023-09-30T08:33:39;6.55;;;6.03;;
11396;SDS011;5754;43.726;7.416;2023-09-30T08:36:17;9.88;;;7.18;;
11396;SDS011;5754;43.726;7.416;2023-09-30T08:38:52;9.65;;;7.20;;
11396;SDS011;5754;43.726;7.416;2023-09-30T08:41:32;8.05;;;7.25;;
11396;SDS011;5754;43.726;7.416;2023-09-30T08:44:06;11.23;;;7.10;;
11396;SDS011;5754;43.726;7.416;2023-09-30T08:46:42;7.40;;;6.62;;
11396;SDS011;5754;43.726;7.416;2023-09-30T08:49:18;8.63;;;7.07;;
11396;SDS011;5754;43.726;7.416;2023-09-30T08:51:54;9.02;;;6.90;;
11396;SDS011;5754;43.726;7.416;2023-09-30T08:54:30;9.30;;;6.82;;
11396;SDS011;5754;43.726;7.416;2023-09-30T08:57:07;8.18;;;6.47;;
11396;SDS011;5754;43.726;7.416;2023-09-30T08:59:43;7.55;;;6.72;;
11396;SDS011;5754;43.726;7.416;2023-09-30T09:02:19;8.70;;;6.87;;
11396;SDS011;5754;43.726;7.416;2023-09-30T09:04:54;7.37;;;6.65;;
11396;SDS011;5754;43.726;7.416;2023-09-30T09:07:30;8.73;;;6.78;;
11396;SDS011;5754;43.726;7.416;2023-09-30T09:10:07;8.82;;;7.25;;
11396;SDS011;5754;43.726;7.416;2023-09-30T09:12:42;8.55;;;6.65;;
11396;SDS011;5754;43.726;7.416;2023-09-30T09:15:22;12.25;;;7.12;;
11396;SDS011;5754;43.726;7.416;2023-09-30T09:17:58;7.95;;;7.12;;
11396;SDS011;5754;43.726;7.416;2023-09-30T09:20:33;10.95;;;8.27;;
11396;SDS011;5754;43.726;7.416;2023-09-30T09:23:08;7.93;;;6.70;;
11396;SDS011;5754;43.726;7.416;2023-09-30T09:25:44;7.87;;;6.60;;
11396;SDS011;5754;43.726;7.416;2023-09-30T09:28:18;8.05;;;6.68;;
11396;SDS011;5754;43.726;7.416;2023-09-30T09:30:53;9.48;;;6.60;;
11396;SDS011;5754;43.726;7.416;2023-09-30T09:33:36;9.85;;;7.20;;
11396;SDS011;5754;43.726;7.416;2023-09-30T09:36:11;11.45;;;7.47;;
11396;SDS011;5754;43.726;7.416;2023-09-30T09:38:49;9.20;;;6.62;;
11396;SDS011;5754;43.726;7.416;2023-09-30T09:41:27;8.73;;;6.70;;
11396;SDS011;5754;43.726;7.416;2023-09-30T09:44:01;9.93;;;6.30;;
11396;SDS011;5754;43.726;7.416;2023-09-30T09:46:37;7.97;;;6.87;;
11396;SDS011;5754;43.726;7.416;2023-09-30T09:49:12;8.75;;;6.95;;
11396;SDS011;5754;43.726;7.416;2023-09-30T09:51:48;9.88;;;6.65;;
11396;SDS011;5754;43.726;7.416;2023-09-30T09:54:23;8.63;;;7.05;;
11396;SDS011;5754;43.726;7.416;2023-09-30T09:56:59;10.20;;;7.68;;
11396;SDS011;5754;43.726;7.416;2023-09-30T09:59:38;12.98;;;7.22;;
11396;SDS011;5754;43.726;7.416;2023-09-30T10:02:16;9.30;;;6.62;;
11396;SDS011;5754;43.726;7.416;2023-09-30T10:04:52;9.45;;;7.28;;
11396;SDS011;5754;43.726;7.416;2023-09-30T10:07:28;9.70;;;6.47;;
11396;SDS011;5754;43.726;7.416;2023-09-30T10:10:05;10.00;;;7.12;;
11396;SDS011;5754;43.726;7.416;2023-09-30T10:12:43;11.80;;;7.57;;
11396;SDS011;5754;43.726;7.416;2023-09-30T10:19:14;10.85;;;7.05;;
11396;SDS011;5754;43.726;7.416;2023-09-30T10:24:42;8.43;;;6.93;;
11396;SDS011;5754;43.726;7.416;2023-09-30T10:27:29;8.02;;;7.22;;
11396;SDS011;5754;43.726;7.416;2023-09-30T10:30:10;8.40;;;6.87;;
11396;SDS011;5754;43.726;7.416;2023-09-30T10:33:07;7.90;;;7.15;;
11396;SDS011;5754;43.726;7.416;2023-09-30T10:35:43;9.38;;;6.97;;
11396;SDS011;5754;43.726;7.416;2023-09-30T10:38:38;10.20;;;7.00;;
11396;SDS011;5754;43.726;7.416;2023-09-30T10:41:48;9.77;;;7.15;;
11396;SDS011;5754;43.726;7.416;2023-09-30T10:47:34;8.85;;;7.40;;
11396;SDS011;5754;43.726;7.416;2023-09-30T10:53:04;9.90;;;7.18;;
11396;SDS011;5754;43.726;7.416;2023-09-30T10:55:40;14.32;;;7.90;;
11396;SDS011;5754;43.726;7.416;2023-09-30T10:58:15;9.05;;;7.82;;
11396;SDS011;5754;43.726;7.416;2023-09-30T11:00:53;10.93;;;8.07;;
11396;SDS011;5754;43.726;7.416;2023-09-30T11:03:28;7.97;;;7.25;;
11396;SDS011;5754;43.726;7.416;2023-09-30T11:06:04;8.73;;;7.72;;
11396;SDS011;5754;43.726;7.416;2023-09-30T11:08:46;9.00;;;7.12;;
11396;SDS011;5754;43.726;7.416;2023-09-30T11:11:36;7.93;;;7.12;;
11396;SDS011;5754;43.726;7.416;2023-09-30T11:14:18;9.00;;;7.47;;
11396;SDS011;5754;43.726;7.416;2023-09-30T11:16:53;8.02;;;7.30;;
11396;SDS011;5754;43.726;7.416;2023-09-30T11:19:50;11.45;;;7.97;;
11396;SDS011;5754;43.726;7.416;2023-09-30T11:22:26;9.18;;;8.23;;
11396;SDS011;5754;43.726;7.416;2023-09-30T11:25:02;11.07;;;8.25;;
11396;SDS011;5754;43.726;7.416;2023-09-30T11:27:37;11.27;;;7.75;;
11396;SDS011;5754;43.726;7.416;2023-09-30T11:30:14;13.95;;;8.77;;
11396;SDS011;5754;43.726;7.416;2023-09-30T11:32:57;12.50;;;8.35;;
11396;SDS011;5754;43.726;7.416;2023-09-30T11:35:33;8.57;;;7.68;;
11396;SDS011;5754;43.726;7.416;2023-09-30T11:41:01;10.82;;;7.75;;
11396;SDS011;5754;43.726;7.416;2023-09-30T11:43:45;9.93;;;8.07;;
11396;SDS011;5754;43.726;7.416;2023-09-30T11:52:43;8.65;;;7.85;;
11396;SDS011;5754;43.726;7.416;2023-09-30T11:55:20;9.40;;;7.68;;
11396;SDS011;5754;43.726;7.416;2023-09-30T11:57:55;13.62;;;7.97;;
11396;SDS011;5754;43.726;7.416;2023-09-30T12:00:30;9.85;;;8.23;;
11396;SDS011;5754;43.726;7.416;2023-09-30T12:03:05;8.23;;;7.47;;
11396;SDS011;5754;43.726;7.416;2023-09-30T12:05:40;11.63;;;7.93;;
11396;SDS011;5754;43.726;7.416;2023-09-30T12:08:15;8.82;;;7.65;;
11396;SDS011;5754;43.726;7.416;2023-09-30T12:10:50;12.57;;;7.75;;
11396;SDS011;5754;43.726;7.416;2023-09-30T12:13:25;8.65;;;7.87;;
11396;SDS011;5754;43.726;7.416;2023-09-30T12:16:00;13.05;;;8.60;;
11396;SDS011;5754;43.726;7.416;2023-09-30T12:18:34;11.43;;;7.90;;
11396;SDS011;5754;43.726;7.416;2023-09-30T12:21:10;9.68;;;7.97;;
11396;SDS011;5754;43.726;7.416;2023-09-30T12:23:45;14.13;;;8.13;;
11396;SDS011;5754;43.726;7.416;2023-09-30T12:26:22;9.15;;;7.80;;
11396;SDS011;5754;43.726;7.416;2023-09-30T12:28:56;9.43;;;8.52;;
11396;SDS011;5754;43.726;7.416;2023-09-30T12:31:31;10.13;;;8.20;;
11396;SDS011;5754;43.726;7.416;2023-09-30T12:34:12;11.02;;;8.75;;
11396;SDS011;5754;43.726;7.416;2023-09-30T12:36:47;9.73;;;8.45;;
11396;SDS011;5754;43.726;7.416;2023-09-30T12:39:23;9.73;;;8.70;;
11396;SDS011;5754;43.726;7.416;2023-09-30T12:42:00;11.70;;;8.40;;
11396;SDS011;5754;43.726;7.416;2023-09-30T12:44:34;9.77;;;8.20;;
11396;SDS011;5754;43.726;7.416;2023-09-30T12:47:09;10.10;;;8.18;;
11396;SDS011;5754;43.726;7.416;2023-09-30T12:49:44;11.07;;;8.65;;
11396;SDS011;5754;43.726;7.416;2023-09-30T12:52:18;8.82;;;7.90;;
11396;SDS011;5754;43.726;7.416;2023-09-30T12:54:54;10.65;;;8.93;;
11396;SDS011;5754;43.726;7.416;2023-09-30T12:57:28;9.45;;;8.45;;
11396;SDS011;5754;43.726;7.416;2023-09-30T13:00:03;9.65;;;8.73;;
11396;SDS011;5754;43.726;7.416;2023-09-30T13:02:39;11.65;;;8.73;;
11396;SDS011;5754;43.726;7.416;2023-09-30T13:05:14;8.88;;;7.97;;
11396;SDS011;5754;43.726;7.416;2023-09-30T13:07:50;11.10;;;7.87;;
11396;SDS011;5754;43.726;7.416;2023-09-30T13:10:28;9.68;;;7.40;;
11396;SDS011;5754;43.726;7.416;2023-09-30T13:13:03;11.70;;;8.23;;
11396;SDS011;5754;43.726;7.416;2023-09-30T13:15:39;8.70;;;8.00;;
11396;SDS011;5754;43.726;7.416;2023-09-30T13:18:14;9.18;;;7.85;;
11396;SDS011;5754;43.726;7.416;2023-09-30T13:20:49;10.52;;;7.75;;
11396;SDS011;5754;43.726;7.416;2023-09-30T13:23:26;8.52;;;7.70;;
11396;SDS011;5754;43.726;7.416;2023-09-30T13:26:01;9.13;;;8.05;;
11396;SDS011;5754;43.726;7.416;2023-09-30T13:28:36;8.90;;;8.10;;
11396;SDS011;5754;43.726;7.416;2023-09-30T13:31:12;10.55;;;8.27;;
11396;SDS011;5754;43.726;7.416;2023-09-30T13:34:00;10.07;;;8.10;;
11396;SDS011;5754;43.726;7.416;2023-09-30T13:36:38;10.07;;;8.13;;
11396;SDS011;5754;43.726;7.416;2023-09-30T13:39:13;9.48;;;8.00;;
11396;SDS011;5754;43.726;7.416;2023-09-30T13:41:51;10.50;;;7.97;;
11396;SDS011;5754;43.726;7.416;2023-09-30T13:44:25;8.73;;;7.80;;
11396;SDS011;5754;43.726;7.416;2023-09-30T13:47:00;9.10;;;8.18;;
11396;SDS011;5754;43.726;7.416;2023-09-30T13:49:35;8.88;;;8.05;;
11396;SDS011;5754;43.726;7.416;2023-09-30T13:52:09;9.02;;;8.23;;
11396;SDS011;5754;43.726;7.416;2023-09-30T13:54:44;9.20;;;7.95;;
11396;SDS011;5754;43.726;7.416;2023-09-30T13:57:18;11.12;;;8.07;;
11396;SDS011;5754;43.726;7.416;2023-09-30T13:59:54;11.00;;;7.20;;
11396;SDS011;5754;43.726;7.416;2023-09-30T14:02:29;7.90;;;7.12;;
11396;SDS011;5754;43.726;7.416;2023-09-30T14:05:04;8.25;;;7.45;;
11396;SDS011;5754;43.726;7.416;2023-09-30T14:07:41;10.23;;;7.37;;
11396;SDS011;5754;43.726;7.416;2023-09-30T14:10:16;9.27;;;8.10;;
11396;SDS011;5754;43.726;7.416;2023-09-30T14:12:52;11.60;;;7.82;;
11396;SDS011;5754;43.726;7.416;2023-09-30T14:15:28;9.45;;;7.62;;
11396;SDS011;5754;43.726;7.416;2023-09-30T14:18:04;8.45;;;7.65;;
11396;SDS011;5754;43.726;7.416;2023-09-30T14:20:41;16.02;;;9.27;;
11396;SDS011;5754;43.726;7.416;2023-09-30T14:23:16;17.17;;;8.45;;
11396;SDS011;5754;43.726;7.416;2023-09-30T14:25:53;8.85;;;7.72;;
11396;SDS011;5754;43.726;7.416;2023-09-30T14:28:30;9.73;;;8.48;;
11396;SDS011;5754;43.726;7.416;2023-09-30T14:31:05;8.63;;;7.87;;
11396;SDS011;5754;43.726;7.416;2023-09-30T14:33:41;8.98;;;8.27;;
11396;SDS011;5754;43.726;7.416;2023-09-30T14:36:16;10.95;;;7.82;;
11396;SDS011;5754;43.726;7.416;2023-09-30T14:38:51;11.00;;;7.65;;
11396;SDS011;5754;43.726;7.416;2023-09-30T14:41:30;10.48;;;7.62;;
11396;SDS011;5754;43.726;7.416;2023-09-30T14:44:06;11.88;;;7.93;;
11396;SDS011;5754;43.726;7.416;2023-09-30T14:46:42;9.27;;;8.38;;
11396;SDS011;5754;43.726;7.416;2023-09-30T14:49:18;9.32;;;8.25;;
11396;SDS011;5754;43.726;7.416;2023-09-30T14:51:54;9.13;;;8.32;;
11396;SDS011;5754;43.726;7.416;2023-09-30T14:54:30;10.50;;;8.15;;
11396;SDS011;5754;43.726;7.416;2023-09-30T14:57:06;10.05;;;9.15;;
11396;SDS011;5754;43.726;7.416;2023-09-30T14:59:42;10.50;;;9.40;;
11396;SDS011;5754;43.726;7.416;2023-09-30T15:02:18;10.60;;;9.57;;
11396;SDS011;5754;43.726;7.416;2023-09-30T15:04:52;11.00;;;9.90;;
11396;SDS011;5754;43.726;7.416;2023-09-30T15:07:27;10.02;;;9.02;;
11396;SDS011;5754;43.726;7.416;2023-09-30T15:10:01;10.82;;;8.93;;
11396;SDS011;5754;43.726;7.416;2023-09-30T15:12:38;8.98;;;8.25;;
11396;SDS011;5754;43.726;7.416;2023-09-30T15:15:13;9.35;;;8.55;;
11396;SDS011;5754;43.726;7.416;2023-09-30T15:17:47;9.00;;;8.20;;
11396;SDS011;5754;43.726;7.416;2023-09-30T15:20:23;8.90;;;8.10;;
11396;SDS011;5754;43.726;7.416;2023-09-30T15:23:13;9.40;;;8.55;;
11396;SDS011;5754;43.726;7.416;2023-09-30T15:25:48;9.57;;;8.68;;
11396;SDS011;5754;43.726;7.416;2023-09-30T15:28:23;8.93;;;8.13;;
11396;SDS011;5754;43.726;7.416;2023-09-30T15:30:58;9.13;;;8.15;;
11396;SDS011;5754;43.726;7.416;2023-09-30T15:33:34;9.10;;;8.18;;
11396;SDS011;5754;43.726;7.416;2023-09-30T15:36:12;9.00;;;8.20;;
11396;SDS011;5754;43.726;7.416;2023-09-30T15:38:47;9.05;;;8.18;;
11396;SDS011;5754;43.726;7.416;2023-09-30T15:41:23;9.27;;;8.57;;
11396;SDS011;5754;43.726;7.416;2023-09-30T15:43:58;11.70;;;10.15;;
11396;SDS011;5754;43.726;7.416;2023-09-30T15:46:37;11.12;;;9.95;;
11396;SDS011;5754;43.726;7.416;2023-09-30T15:49:13;14.60;;;9.75;;
11396;SDS011;5754;43.726;7.416;2023-09-30T15:51:47;11.30;;;10.13;;
11396;SDS011;5754;43.726;7.416;2023-09-30T15:54:22;10.90;;;9.82;;
11396;SDS011;5754;43.726;7.416;2023-09-30T15:56:57;12.63;;;10.93;;
11396;SDS011;5754;43.726;7.416;2023-09-30T15:59:32;14.13;;;11.48;;
11396;SDS011;5754;43.726;7.416;2023-09-30T16:02:07;12.95;;;10.95;;
11396;SDS011;5754;43.726;7.416;2023-09-30T16:04:42;11.12;;;10.18;;
11396;SDS011;5754;43.726;7.416;2023-09-30T16:07:17;11.65;;;10.60;;
11396;SDS011;5754;43.726;7.416;2023-09-30T16:09:52;13.13;;;11.75;;
11396;SDS011;5754;43.726;7.416;2023-09-30T16:12:27;13.20;;;11.93;;
11396;SDS011;5754;43.726;7.416;2023-09-30T16:15:03;11.55;;;10.45;;